KPHX/PHX METAR and TAF weather

Enter ICAO airport designator
Station Type Date Time Source
KPHX METAR 2020/07/03 12:51 UTC NOAA

KPHX 031251Z 12007KT 10SM FEW090 SCT110 SCT160 SCT190 29/16 A2992 RMK AO2 SLP110 T02940161 $


Station Type Date Time Source
KPHX Decoded METAR 2020/07/03 12:51 UTC NOAA

Phoenix, Phoenix Sky Harbor International Airport, AZ, United States (KPHX) 33-26-03N 112-03-04W 336M
Jul 03, 2020 - 08:51 AM EDT / 2020.07.03 1251 UTC
Wind: from the ESE (120 degrees) at 8 MPH (7 KT):0
Visibility: 10 mile(s):0
Sky conditions: partly cloudy
Temperature: 84.9 F (29.4 C)
Dew Point: 61.0 F (16.1 C)
Relative Humidity: 44%
Pressure (altimeter): 29.92 in. Hg (1013 hPa)
ob: KPHX 031251Z 12007KT 10SM FEW090 SCT110 SCT160 SCT190 29/16 A2992 RMK AO2 SLP110 T02940161
cycle: 13

Station Type Date Time Source
KPHX TAF 2020/07/03 12:22 UTC NOAA

TAF KPHX 031120Z 0312/0418 12006KT P6SM FEW090 SCT150
FM031800 21006KT P6SM FEW100 FEW150
FM032100 26008KT P6SM FEW120
FM041200 10005KT P6SM SCT200

Example: see airport list